Time;durP1;ratioP1;P1;durP2;ratioP2;P2;SDS_P1;SDS_P2;PMS_P1;PMS_P2;Temp;Humidity;BMP_temperature;BMP_pressure;BME280_temperature;BME280_humidity;BME280_pressure;Samples;Min_cycle;Max_cycle;Signal;HPM_P1;HPM_P2
2023/01/03 00:02:01;;;;;;;2.67;1.30;;;;;;;;;;10515344;28;20464;-75
2023/01/03 00:07:05;;;;;;;3.25;1.58;;;;;;;;;;10527284;28;20390;-75
2023/01/03 00:12:26;;;;;;;2.92;1.20;;;;;;;;;;10516309;28;20056;-76
2023/01/03 00:17:32;;;;;;;4.35;1.50;;;;;;;;;;10524253;28;20036;-75
2023/01/03 00:22:36;;;;;;;2.50;1.30;;;;;;;;;;10521212;28;20417;-75
2023/01/03 00:27:39;;;;;;;4.00;1.60;;;;;;;;;;10522676;28;20124;-75
2023/01/03 00:32:42;;;;;;;3.40;1.63;;;;;;;;;;10524051;28;20047;-77
2023/01/03 00:37:46;;;;;;;5.88;1.90;;;;;;;;;;10522771;28;20048;-77
2023/01/03 00:48:09;;;;;;;2.65;1.52;;;;;;;;;;10529222;28;20052;-75
2023/01/03 00:53:13;;;;;;;8.13;1.95;;;;;;;;;;10517939;28;20040;-75
2023/01/03 00:58:16;;;;;;;4.85;1.92;;;;;;;;;;10529765;28;20506;-75
2023/01/03 01:03:19;;;;;;;5.60;1.80;;;;;;;;;;10521130;28;20047;-75
2023/01/03 01:08:23;;;;;;;6.20;1.95;;;;;;;;;;10523895;28;20047;-76
2023/01/03 01:13:26;;;;;;;3.35;1.88;;;;;;;;;;10526734;28;20040;-77
2023/01/03 01:18:28;;;;;;;3.97;1.70;;;;;;;;;;10518111;28;20390;-76
2023/01/03 01:23:32;;;;;;;2.38;1.23;;;;;;;;;;10527044;28;20032;-75
2023/01/03 01:28:35;;;;;;;1.77;1.00;;;;;;;;;;10525711;28;20048;-76
2023/01/03 01:33:37;;;;;;;4.00;1.38;;;;;;;;;;10522477;28;20063;-75
2023/01/03 01:38:42;;;;;;;1.55;0.85;;;;;;;;;;10514206;28;20106;-75
2023/01/03 01:49:18;;;;;;;1.58;1.10;;;;;;;;;;10521212;28;20039;-75
2023/01/03 01:54:22;;;;;;;3.13;1.48;;;;;;;;;;10517443;28;20048;-75
2023/01/03 01:59:27;;;;;;;2.30;1.20;;;;;;;;;;10529834;28;20047;-76
2023/01/03 02:04:32;;;;;;;1.10;0.73;;;;;;;;;;10527241;28;20161;-75
2023/01/03 02:09:35;;;;;;;1.15;0.60;;;;;;;;;;10518522;28;20042;-74
2023/01/03 02:14:43;;;;;;;1.23;0.70;;;;;;;;;;10528154;28;20040;-75
2023/01/03 02:19:56;;;;;;;0.63;0.60;;;;;;;;;;10522048;28;20134;-75
2023/01/03 02:25:15;;;;;;;1.77;0.57;;;;;;;;;;10534261;28;20044;-75
2023/01/03 02:30:31;;;;;;;0.77;0.75;;;;;;;;;;10528328;28;20113;-75
2023/01/03 02:35:37;;;;;;;0.50;0.50;;;;;;;;;;10531960;28;20043;-75
2023/01/03 02:40:44;;;;;;;0.38;0.38;;;;;;;;;;10527967;28;20493;-75
2023/01/03 02:45:58;;;;;;;1.08;0.52;;;;;;;;;;10524621;28;20286;-76
2023/01/03 02:51:02;;;;;;;0.38;0.38;;;;;;;;;;10516855;28;20127;-76
2023/01/03 02:56:07;;;;;;;0.50;0.50;;;;;;;;;;10525087;28;20432;-76
2023/01/03 03:01:12;;;;;;;0.25;0.20;;;;;;;;;;10525117;28;20056;-78
2023/01/03 03:06:19;;;;;;;1.15;0.52;;;;;;;;;;10524534;28;20128;-75
2023/01/03 03:16:51;;;;;;;0.70;0.50;;;;;;;;;;10487897;28;20473;-75
2023/01/03 03:32:35;;;;;;;0.38;0.38;;;;;;;;;;10525795;28;20048;-75
2023/01/03 03:37:40;;;;;;;0.98;0.60;;;;;;;;;;10535707;28;20059;-76
2023/01/03 03:48:08;;;;;;;0.43;0.43;;;;;;;;;;10519483;28;20040;-76
2023/01/03 03:53:11;;;;;;;0.70;0.60;;;;;;;;;;10522168;28;20040;-76
2023/01/03 03:58:16;;;;;;;1.83;0.67;;;;;;;;;;10522122;28;20036;-76
2023/01/03 04:03:20;;;;;;;0.57;0.50;;;;;;;;;;10524357;28;20040;-77
2023/01/03 04:08:23;;;;;;;0.80;0.60;;;;;;;;;;10522583;28;20032;-75
2023/01/03 04:13:26;;;;;;;1.02;0.80;;;;;;;;;;10533132;28;20098;-75
2023/01/03 04:18:29;;;;;;;0.77;0.77;;;;;;;;;;10522838;28;20093;-75
2023/01/03 04:23:32;;;;;;;1.55;0.90;;;;;;;;;;10527691;28;20048;-76
2023/01/03 04:28:34;;;;;;;1.45;0.60;;;;;;;;;;10518935;28;20494;-74
2023/01/03 04:33:39;;;;;;;0.98;0.65;;;;;;;;;;10518419;28;20050;-75
2023/01/03 04:38:41;;;;;;;1.27;0.90;;;;;;;;;;10521886;28;20036;-75
2023/01/03 04:44:03;;;;;;;0.75;0.60;;;;;;;;;;10524789;28;20406;-75
2023/01/03 04:49:07;;;;;;;1.77;0.70;;;;;;;;;;10517309;28;20036;-75
2023/01/03 04:54:10;;;;;;;1.73;0.80;;;;;;;;;;10525638;28;20031;-75
2023/01/03 04:59:13;;;;;;;1.33;0.80;;;;;;;;;;10515514;28;20040;-75
2023/01/03 05:04:17;;;;;;;0.55;0.50;;;;;;;;;;10519566;28;20037;-75
2023/01/03 05:09:20;;;;;;;;;;;;;;;;;;10524838;28;20465;-76
2023/01/03 05:14:22;;;;;;;1.60;0.77;;;;;;;;;;10519124;28;19939;-75
2023/01/03 05:19:26;;;;;;;1.95;0.95;;;;;;;;;;10517018;28;20066;-75
2023/01/03 05:29:52;;;;;;;1.92;0.90;;;;;;;;;;10522778;28;20454;-75
2023/01/03 05:34:56;;;;;;;0.85;0.82;;;;;;;;;;10520593;28;20365;-76
2023/01/03 05:39:59;;;;;;;0.88;0.73;;;;;;;;;;10535820;28;20089;-76
2023/01/03 05:45:01;;;;;;;1.63;1.02;;;;;;;;;;10528183;28;20048;-75
2023/01/03 05:50:06;;;;;;;1.23;0.77;;;;;;;;;;10522852;28;20040;-76
2023/01/03 05:55:09;;;;;;;1.50;0.80;;;;;;;;;;10522997;28;20094;-75
2023/01/03 06:00:12;;;;;;;1.98;1.17;;;;;;;;;;10527424;28;20563;-77
2023/01/03 06:05:17;;;;;;;4.13;1.30;;;;;;;;;;10528235;28;20029;-77
2023/01/03 06:10:19;;;;;;;;;;;;;;;;;;10522461;28;20393;-74
2023/01/03 06:15:21;;;;;;;3.15;1.15;;;;;;;;;;10525622;28;19971;-75
2023/01/03 06:20:26;;;;;;;1.20;1.00;;;;;;;;;;10530625;28;20037;-75
2023/01/03 06:25:29;;;;;;;1.63;0.98;;;;;;;;;;10524118;28;20044;-75
2023/01/03 06:30:31;;;;;;;1.98;1.05;;;;;;;;;;10528326;28;20071;-76
2023/01/03 06:35:37;;;;;;;1.98;1.10;;;;;;;;;;10520439;28;20409;-74
2023/01/03 06:40:47;;;;;;;1.88;1.25;;;;;;;;;;10523736;28;20061;-76
2023/01/03 06:56:31;;;;;;;1.38;1.17;;;;;;;;;;10523847;28;20036;-75
2023/01/03 07:01:33;;;;;;;2.55;1.30;;;;;;;;;;10521917;28;20192;-77
2023/01/03 07:06:38;;;;;;;2.55;1.10;;;;;;;;;;10522868;28;20078;-75
2023/01/03 07:11:40;;;;;;;1.95;1.35;;;;;;;;;;10518742;28;20055;-77
2023/01/03 07:16:44;;;;;;;2.15;1.48;;;;;;;;;;10523781;28;20089;-76
2023/01/03 07:21:48;;;;;;;3.00;1.47;;;;;;;;;;10529375;28;20116;-77
2023/01/03 07:26:50;;;;;;;2.85;1.60;;;;;;;;;;10520358;28;20071;-75
2023/01/03 07:31:53;;;;;;;3.65;1.58;;;;;;;;;;10516104;28;20055;-75
2023/01/03 07:36:57;;;;;;;3.40;1.85;;;;;;;;;;10527721;28;20032;-75
2023/01/03 07:47:19;;;;;;;3.20;1.80;;;;;;;;;;10525317;28;20151;-75
2023/01/03 07:52:23;;;;;;;4.68;2.40;;;;;;;;;;10516380;28;20137;-74
2023/01/03 07:57:25;;;;;;;4.38;1.98;;;;;;;;;;10526658;28;20409;-76
2023/01/03 08:02:28;;;;;;;3.63;1.77;;;;;;;;;;10522252;28;20082;-74
2023/01/03 08:07:32;;;;;;;4.15;1.70;;;;;;;;;;10522318;28;20045;-76
2023/01/03 08:17:54;;;;;;;2.95;1.58;;;;;;;;;;10522467;28;20055;-76
2023/01/03 08:23:00;;;;;;;4.32;2.33;;;;;;;;;;10515994;28;20047;-76
2023/01/03 08:28:02;;;;;;;4.43;1.98;;;;;;;;;;10519757;28;20051;-76
2023/01/03 08:33:07;;;;;;;2.92;1.83;;;;;;;;;;10524137;28;20048;-76
2023/01/03 08:38:15;;;;;;;2.90;1.85;;;;;;;;;;10515454;28;20587;-76
2023/01/03 08:43:18;;;;;;;2.97;1.77;;;;;;;;;;10518741;28;20493;-76
2023/01/03 08:48:21;;;;;;;3.63;1.90;;;;;;;;;;10522726;28;20044;-76
2023/01/03 08:53:27;;;;;;;2.97;1.80;;;;;;;;;;10520667;28;20050;-77
2023/01/03 08:58:30;;;;;;;3.50;2.00;;;;;;;;;;10520038;28;20477;-75
2023/01/03 09:03:32;;;;;;;9.25;2.40;;;;;;;;;;10514143;28;20661;-78
2023/01/03 09:08:37;;;;;;;3.55;2.22;;;;;;;;;;10527293;28;20075;-76
2023/01/03 09:13:40;;;;;;;5.88;2.20;;;;;;;;;;10526858;28;20755;-77
2023/01/03 09:18:43;;;;;;;3.90;2.03;;;;;;;;;;10530455;28;20130;-78
2023/01/03 09:23:47;;;;;;;3.60;2.03;;;;;;;;;;10522305;28;20608;-76
2023/01/03 09:28:49;;;;;;;3.78;2.05;;;;;;;;;;10528460;28;20044;-77
2023/01/03 09:33:52;;;;;;;4.15;1.88;;;;;;;;;;10524557;28;20500;-76
2023/01/03 09:38:56;;;;;;;3.65;2.33;;;;;;;;;;10524367;28;20051;-77
2023/01/03 09:44:01;;;;;;;5.38;1.95;;;;;;;;;;10534814;28;20060;-77
2023/01/03 09:49:05;;;;;;;4.50;2.00;;;;;;;;;;10533925;28;20053;-76
2023/01/03 10:05:08;;;;;;;6.65;3.08;;;;;;;;;;10518685;28;20040;-77
2023/01/03 10:10:16;;;;;;;4.78;2.30;;;;;;;;;;10532393;28;20067;-77
2023/01/03 10:15:22;;;;;;;3.72;2.20;;;;;;;;;;10517753;28;20433;-77
2023/01/03 10:20:29;;;;;;;7.30;2.50;;;;;;;;;;10522353;28;20040;-76
2023/01/03 10:25:37;;;;;;;4.63;2.20;;;;;;;;;;10527392;28;20036;-77
2023/01/03 10:30:47;;;;;;;6.47;2.20;;;;;;;;;;10527974;28;20506;-77
2023/01/03 10:36:00;;;;;;;4.15;2.60;;;;;;;;;;10532949;28;20118;-77
2023/01/03 10:41:04;;;;;;;5.50;2.50;;;;;;;;;;10530201;28;20043;-77
2023/01/03 10:46:06;;;;;;;;;;;;;;;;;;10532238;28;20068;-77
2023/01/03 10:51:23;;;;;;;5.32;3.10;;;;;;;;;;10522210;28;20037;-77
2023/01/03 10:56:29;;;;;;;5.15;2.13;;;;;;;;;;10531262;28;20051;-77
2023/01/03 11:01:31;;;;;;;10.10;2.45;;;;;;;;;;10519948;28;20439;-76
2023/01/03 11:06:34;;;;;;;5.15;2.55;;;;;;;;;;10525091;28;20153;-75
2023/01/03 11:11:41;;;;;;;3.35;1.90;;;;;;;;;;10522041;28;20113;-75
2023/01/03 11:16:43;;;;;;;2.80;1.40;;;;;;;;;;10525194;28;20062;-77
2023/01/03 11:21:51;;;;;;;4.05;2.25;;;;;;;;;;10528282;28;20182;-77
2023/01/03 11:27:01;;;;;;;8.27;2.58;;;;;;;;;;10527925;28;20044;-76
2023/01/03 11:32:11;;;;;;;4.57;2.50;;;;;;;;;;10522931;28;20052;-76
2023/01/03 11:37:19;;;;;;;6.93;2.40;;;;;;;;;;10522453;28;20463;-77
2023/01/03 11:42:32;;;;;;;4.88;2.85;;;;;;;;;;10524987;28;20043;-77
2023/01/03 11:47:38;;;;;;;9.18;3.22;;;;;;;;;;10525546;28;20547;-77
2023/01/03 11:52:45;;;;;;;4.93;2.35;;;;;;;;;;10522058;28;20072;-76
2023/01/03 11:57:56;;;;;;;8.32;3.58;;;;;;;;;;10522709;28;20400;-77
2023/01/03 12:03:04;;;;;;;6.40;3.22;;;;;;;;;;10517630;28;20121;-78
2023/01/03 12:08:16;;;;;;;7.93;2.92;;;;;;;;;;10517465;28;20071;-77
2023/01/03 12:13:23;;;;;;;5.97;2.90;;;;;;;;;;10514803;28;20059;-76
2023/01/03 12:18:37;;;;;;;5.85;2.80;;;;;;;;;;10516425;28;20040;-76
2023/01/03 12:23:41;;;;;;;6.85;2.97;;;;;;;;;;10514581;28;20525;-76
2023/01/03 12:28:48;;;;;;;7.28;2.63;;;;;;;;;;10524325;28;20098;-76
2023/01/03 12:33:56;;;;;;;4.05;2.58;;;;;;;;;;10521871;28;20489;-76
2023/01/03 12:39:03;;;;;;;5.60;2.10;;;;;;;;;;10524687;28;20513;-76
2023/01/03 12:44:13;;;;;;;4.95;1.98;;;;;;;;;;10518584;28;20074;-76
2023/01/03 12:49:18;;;;;;;5.03;2.47;;;;;;;;;;10518913;28;20043;-76
2023/01/03 12:54:25;;;;;;;3.88;2.38;;;;;;;;;;10527191;28;20047;-76
2023/01/03 12:59:38;;;;;;;4.32;2.75;;;;;;;;;;10523087;28;20055;-76
2023/01/03 13:04:41;;;;;;;4.95;2.95;;;;;;;;;;10515479;28;20028;-77
2023/01/03 13:09:46;;;;;;;6.25;2.50;;;;;;;;;;10523682;28;20164;-76
2023/01/03 13:14:48;;;;;;;;;;;;;;;;;;10525188;28;20101;-77
2023/01/03 13:19:53;;;;;;;5.95;3.20;;;;;;;;;;10521113;28;19973;-77
2023/01/03 13:25:16;;;;;;;5.88;2.78;;;;;;;;;;10512342;28;20097;-77
2023/01/03 13:30:21;;;;;;;6.80;2.90;;;;;;;;;;10510240;28;20667;-77
2023/01/03 13:35:32;;;;;;;4.50;2.63;;;;;;;;;;10520527;28;20040;-76
2023/01/03 13:40:36;;;;;;;5.97;2.63;;;;;;;;;;10520035;28;20063;-76
2023/01/03 13:46:02;;;;;;;5.18;2.88;;;;;;;;;;10519465;28;20197;-76
2023/01/03 13:51:19;;;;;;;5.03;2.75;;;;;;;;;;10519163;28;20044;-77
2023/01/03 13:56:23;;;;;;;4.57;2.72;;;;;;;;;;10517657;28;20036;-78
2023/01/03 14:01:38;;;;;;;9.32;2.85;;;;;;;;;;10535973;28;20131;-76
2023/01/03 14:06:47;;;;;;;4.20;2.30;;;;;;;;;;10526351;28;20044;-75
2023/01/03 14:11:59;;;;;;;4.18;1.90;;;;;;;;;;10526675;28;20105;-76
2023/01/03 14:17:03;;;;;;;5.32;2.58;;;;;;;;;;10530052;28;20052;-76
2023/01/03 14:22:11;;;;;;;6.68;2.63;;;;;;;;;;10523214;28;20219;-76
2023/01/03 14:27:35;;;;;;;3.08;1.83;;;;;;;;;;10526961;28;20105;-76
2023/01/03 14:32:39;;;;;;;3.20;1.70;;;;;;;;;;10527248;28;20139;-76
2023/01/03 14:37:45;;;;;;;4.13;1.73;;;;;;;;;;10531199;28;20451;-76
2023/01/03 14:42:48;;;;;;;4.63;1.70;;;;;;;;;;10528810;28;20036;-78
2023/01/03 14:47:53;;;;;;;3.60;1.80;;;;;;;;;;10526100;28;20036;-76
2023/01/03 14:52:57;;;;;;;5.43;1.95;;;;;;;;;;10518714;28;20135;-76
2023/01/03 14:58:02;;;;;;;3.15;1.52;;;;;;;;;;10524003;28;20105;-76
2023/01/03 15:03:10;;;;;;;4.53;2.00;;;;;;;;;;10522019;28;20044;-77
2023/01/03 15:08:21;;;;;;;2.83;1.80;;;;;;;;;;10528119;28;20051;-76
2023/01/03 15:13:25;;;;;;;6.18;2.58;;;;;;;;;;10526352;28;20051;-77
2023/01/03 15:18:31;;;;;;;3.70;1.77;;;;;;;;;;10524969;28;20511;-76
2023/01/03 15:23:37;;;;;;;4.15;1.88;;;;;;;;;;10521402;28;20109;-75
2023/01/03 15:28:49;;;;;;;1.30;1.00;;;;;;;;;;10516401;28;20143;-75
2023/01/03 15:34:00;;;;;;;2.05;1.40;;;;;;;;;;10513098;28;20150;-76
2023/01/03 15:39:03;;;;;;;2.85;1.40;;;;;;;;;;10524571;28;20138;-76
2023/01/03 15:44:06;;;;;;;3.67;1.67;;;;;;;;;;10525101;28;20040;-82
2023/01/03 15:49:12;;;;;;;5.60;1.70;;;;;;;;;;10528919;28;20507;-81
2023/01/03 15:54:15;;;;;;;3.10;1.50;;;;;;;;;;10526671;28;20424;-76
2023/01/03 15:59:20;;;;;;;7.33;1.70;;;;;;;;;;10523374;28;20481;-76
2023/01/03 16:04:25;;;;;;;3.28;1.80;;;;;;;;;;10528969;28;20035;-79
2023/01/03 16:09:27;;;;;;;3.47;1.60;;;;;;;;;;10521185;28;20451;-77
2023/01/03 16:14:33;;;;;;;2.63;1.40;;;;;;;;;;10528774;28;20602;-77
2023/01/03 16:19:37;;;;;;;3.17;1.50;;;;;;;;;;10520931;28;20044;-75
2023/01/03 16:24:40;;;;;;;5.22;1.63;;;;;;;;;;10522537;28;20089;-75
2023/01/03 16:29:42;;;;;;;4.20;1.92;;;;;;;;;;10526158;28;20512;-76
2023/01/03 16:34:46;;;;;;;7.85;3.20;;;;;;;;;;10521627;28;20805;-75
2023/01/03 16:39:49;;;;;;;8.70;3.55;;;;;;;;;;10518136;28;20032;-77
2023/01/03 16:44:51;;;;;;;11.35;3.65;;;;;;;;;;10519967;28;20148;-77
2023/01/03 16:49:56;;;;;;;9.02;3.70;;;;;;;;;;10528505;28;20058;-76
2023/01/03 16:55:00;;;;;;;6.25;2.75;;;;;;;;;;10517333;28;20139;-75
2023/01/03 17:00:03;;;;;;;2.17;1.50;;;;;;;;;;10521269;28;20041;-76
2023/01/03 17:05:08;;;;;;;3.22;1.27;;;;;;;;;;10521874;28;20039;-76
2023/01/03 17:10:18;;;;;;;4.32;1.95;;;;;;;;;;10523501;28;20405;-80
2023/01/03 17:15:20;;;;;;;5.88;2.03;;;;;;;;;;10507276;28;20143;-77
2023/01/03 17:20:24;;;;;;;4.28;2.28;;;;;;;;;;10516233;28;20052;-78
2023/01/03 17:25:27;;;;;;;8.95;3.00;;;;;;;;;;10524246;28;20055;-76
2023/01/03 17:30:29;;;;;;;5.70;3.03;;;;;;;;;;10520361;28;20059;-76
2023/01/03 17:35:34;;;;;;;7.25;3.40;;;;;;;;;;10520785;28;20040;-78
2023/01/03 17:40:37;;;;;;;9.18;3.75;;;;;;;;;;10532114;28;20043;-77
2023/01/03 17:51:01;;;;;;;9.43;3.75;;;;;;;;;;10529252;28;20118;-77
2023/01/03 17:56:04;;;;;;;;;;;;;;;;;;10512304;28;20142;-76
2023/01/03 18:01:08;;;;;;;6.35;3.17;;;;;;;;;;10527540;28;19924;-76
2023/01/03 18:06:14;;;;;;;10.73;3.63;;;;;;;;;;10527322;28;20055;-78
2023/01/03 18:11:20;;;;;;;9.98;4.32;;;;;;;;;;10522306;28;20040;-76
2023/01/03 18:16:23;;;;;;;8.25;4.20;;;;;;;;;;10534085;28;20040;-78
2023/01/03 18:21:27;;;;;;;10.77;4.93;;;;;;;;;;10525897;28;20119;-77
2023/01/03 18:26:31;;;;;;;11.63;5.15;;;;;;;;;;10528300;28;20384;-77
2023/01/03 18:31:34;;;;;;;8.95;4.18;;;;;;;;;;10528407;28;20047;-77
2023/01/03 18:36:39;;;;;;;12.50;4.30;;;;;;;;;;10527099;28;20059;-76
2023/01/03 18:41:42;;;;;;;9.38;4.40;;;;;;;;;;10530392;28;20097;-78
2023/01/03 18:46:46;;;;;;;11.23;4.63;;;;;;;;;;10525927;28;20364;-78
2023/01/03 18:51:52;;;;;;;33.85;12.85;;;;;;;;;;10534003;28;20777;-77
2023/01/03 18:56:55;;;;;;;6.50;3.13;;;;;;;;;;10523202;28;20052;-76
2023/01/03 19:01:57;;;;;;;11.40;4.80;;;;;;;;;;10523062;28;20547;-78
2023/01/03 19:07:02;;;;;;;10.32;4.72;;;;;;;;;;10522339;28;20131;-78
2023/01/03 19:12:06;;;;;;;13.32;4.22;;;;;;;;;;10524825;28;20068;-78
2023/01/03 19:17:13;;;;;;;7.20;3.55;;;;;;;;;;10520661;28;20130;-78
2023/01/03 19:22:21;;;;;;;9.43;4.30;;;;;;;;;;10523202;28;20036;-78
2023/01/03 19:27:26;;;;;;;9.55;3.97;;;;;;;;;;10532540;28;20122;-78
2023/01/03 19:32:29;;;;;;;9.43;4.28;;;;;;;;;;10523644;28;20052;-79
2023/01/03 19:37:33;;;;;;;7.75;3.85;;;;;;;;;;10526128;28;20736;-78
2023/01/03 19:42:47;;;;;;;10.38;4.30;;;;;;;;;;10525316;28;20093;-77
2023/01/03 19:47:50;;;;;;;;;;;;;;;;;;10522289;28;20468;-78
2023/01/03 19:52:54;;;;;;;14.80;5.80;;;;;;;;;;10515930;28;20423;-77
2023/01/03 19:57:56;;;;;;;;;;;;;;;;;;10527396;28;20048;-77
2023/01/03 20:03:01;;;;;;;12.82;5.30;;;;;;;;;;10523271;28;20300;-78
2023/01/03 20:08:06;;;;;;;12.20;5.88;;;;;;;;;;10525286;28;20130;-77
2023/01/03 20:13:16;;;;;;;10.32;4.50;;;;;;;;;;10519161;28;20036;-78
2023/01/03 20:18:26;;;;;;;18.67;6.85;;;;;;;;;;10521455;28;20056;-86
2023/01/03 20:23:32;;;;;;;11.45;4.95;;;;;;;;;;10520302;28;20448;-76
2023/01/03 20:28:35;;;;;;;14.10;5.68;;;;;;;;;;10527182;28;20047;-76
2023/01/03 20:33:38;;;;;;;10.88;5.38;;;;;;;;;;10522348;28;20421;-77
2023/01/03 20:38:43;;;;;;;15.82;6.43;;;;;;;;;;10522534;28;20062;-77
2023/01/03 20:43:47;;;;;;;16.00;6.10;;;;;;;;;;10531365;28;20048;-78
2023/01/03 20:48:53;;;;;;;13.57;5.50;;;;;;;;;;10522206;28;20127;-76
2023/01/03 20:53:58;;;;;;;11.27;4.40;;;;;;;;;;10518677;28;20339;-76
2023/01/03 20:59:00;;;;;;;12.45;5.38;;;;;;;;;;10521605;28;20773;-77
2023/01/03 21:04:03;;;;;;;9.27;3.92;;;;;;;;;;10521946;28;20138;-76
2023/01/03 21:09:07;;;;;;;12.70;5.25;;;;;;;;;;10528938;28;20040;-76
2023/01/03 21:14:09;;;;;;;10.63;4.15;;;;;;;;;;10532850;28;20050;-76
2023/01/03 21:19:13;;;;;;;12.93;5.13;;;;;;;;;;10532889;28;20036;-75
2023/01/03 21:24:16;;;;;;;;;;;;;;;;;;10530709;28;20044;-76
2023/01/03 21:29:20;;;;;;;27.05;9.68;;;;;;;;;;10529218;28;19920;-76
2023/01/03 21:34:23;;;;;;;18.58;7.40;;;;;;;;;;10526826;28;21355;-76
2023/01/03 21:39:26;;;;;;;17.38;7.03;;;;;;;;;;10522985;28;20036;-77
2023/01/03 21:44:29;;;;;;;9.10;2.67;;;;;;;;;;10528625;28;20047;-77
2023/01/03 21:49:32;;;;;;;21.10;7.68;;;;;;;;;;10529202;28;20515;-76
2023/01/03 21:54:35;;;;;;;16.15;6.72;;;;;;;;;;10528441;28;20167;-76
2023/01/03 21:59:38;;;;;;;18.25;8.07;;;;;;;;;;10528402;28;20471;-78
2023/01/03 22:04:41;;;;;;;13.85;4.93;;;;;;;;;;10525824;28;20040;-77
2023/01/03 22:15:06;;;;;;;14.93;5.97;;;;;;;;;;10533975;28;20052;-76
2023/01/03 22:20:11;;;;;;;10.43;5.22;;;;;;;;;;10528977;28;20093;-78
2023/01/03 22:25:15;;;;;;;10.73;4.45;;;;;;;;;;10523261;28;20480;-77
2023/01/03 22:30:19;;;;;;;13.45;6.25;;;;;;;;;;10527661;28;20052;-77
2023/01/03 22:35:22;;;;;;;15.25;5.00;;;;;;;;;;10523666;28;20485;-78
2023/01/03 22:40:24;;;;;;;6.28;2.95;;;;;;;;;;10528348;28;20068;-76
2023/01/03 22:45:28;;;;;;;12.43;4.97;;;;;;;;;;10523971;28;20101;-78
2023/01/03 22:50:32;;;;;;;7.90;3.17;;;;;;;;;;10529927;28;21534;-77
2023/01/03 22:55:34;;;;;;;10.73;4.85;;;;;;;;;;10527016;28;20307;-77
2023/01/03 23:00:38;;;;;;;6.68;3.75;;;;;;;;;;10525019;28;20040;-78
2023/01/03 23:05:41;;;;;;;13.80;5.53;;;;;;;;;;10527745;28;20044;-78
2023/01/03 23:10:44;;;;;;;12.68;5.32;;;;;;;;;;10530038;28;20950;-77
2023/01/03 23:15:48;;;;;;;14.98;5.57;;;;;;;;;;10524007;28;20048;-77
2023/01/03 23:20:50;;;;;;;11.80;4.80;;;;;;;;;;10526655;28;20036;-77
2023/01/03 23:25:53;;;;;;;14.25;5.85;;;;;;;;;;10522896;28;20468;-78
2023/01/03 23:30:57;;;;;;;11.15;4.70;;;;;;;;;;10527116;28;20066;-77
2023/01/03 23:36:02;;;;;;;9.05;3.50;;;;;;;;;;10535565;28;20075;-78
2023/01/03 23:41:06;;;;;;;2.17;1.38;;;;;;;;;;10532115;28;20385;-77
2023/01/03 23:46:13;;;;;;;14.30;5.07;;;;;;;;;;10528097;28;20059;-77
2023/01/03 23:51:16;;;;;;;9.63;4.15;;;;;;;;;;10528704;28;20115;-77
2023/01/03 23:56:20;;;;;;;11.50;3.58;;;;;;;;;;10532049;28;20073;-77
